Time;durP1;ratioP1;P1;durP2;ratioP2;P2;SDS_P1;SDS_P2;PMS_P1;PMS_P2;Temp;Humidity;BMP_temperature;BMP_pressure;BME280_temperature;BME280_humidity;BME280_pressure;Samples;Min_cycle;Max_cycle;Signal;HPM_P1;HPM_P2
2021/10/16 00:00:19;;;;;;;1.80;1.05;;;;;;;;;;5056622;28;20017;-77
2021/10/16 00:02:47;;;;;;;1.30;0.88;;;;;;;;;;5057313;28;20533;-76
2021/10/16 00:05:13;;;;;;;1.27;0.70;;;;;;;;;;5058068;28;20040;-76
2021/10/16 00:07:39;;;;;;;2.15;0.90;;;;;;;;;;5057865;28;20049;-76
2021/10/16 00:10:06;;;;;;;1.30;1.00;;;;;;;;;;5058027;28;20045;-76
2021/10/16 00:12:32;;;;;;;0.93;0.80;;;;;;;;;;5057224;28;20547;-76
2021/10/16 00:14:58;;;;;;;1.10;0.88;;;;;;;;;;5056943;28;20025;-76
2021/10/16 00:17:24;;;;;;;2.10;0.85;;;;;;;;;;5056398;28;20122;-75
2021/10/16 00:19:51;;;;;;;1.48;0.75;;;;;;;;;;5056633;28;20017;-76
2021/10/16 00:22:20;;;;;;;1.08;0.80;;;;;;;;;;5056349;28;20100;-75
2021/10/16 00:24:47;;;;;;;1.30;0.85;;;;;;;;;;5056229;28;20059;-75
2021/10/16 00:27:13;;;;;;;2.33;1.20;;;;;;;;;;5054804;28;20025;-76
2021/10/16 00:29:40;;;;;;;1.80;0.93;;;;;;;;;;5056387;28;20025;-76
2021/10/16 00:32:06;;;;;;;1.27;0.73;;;;;;;;;;5056358;28;20025;-77
2021/10/16 00:34:32;;;;;;;1.70;0.93;;;;;;;;;;5056188;28;20079;-77
2021/10/16 00:36:58;;;;;;;1.80;0.70;;;;;;;;;;5056196;28;20071;-77
2021/10/16 00:39:24;;;;;;;0.75;0.55;;;;;;;;;;5053999;28;20025;-77
2021/10/16 00:41:50;;;;;;;1.23;0.60;;;;;;;;;;5054332;28;20025;-76
2021/10/16 00:44:18;;;;;;;2.40;0.95;;;;;;;;;;5055888;28;20025;-76
2021/10/16 00:46:44;;;;;;;1.92;0.80;;;;;;;;;;5055700;28;20494;-76
2021/10/16 00:49:11;;;;;;;1.23;0.65;;;;;;;;;;5055792;28;20025;-76
2021/10/16 00:51:38;;;;;;;1.25;0.80;;;;;;;;;;5055692;28;20044;-76
2021/10/16 00:54:07;;;;;;;1.60;0.80;;;;;;;;;;5055655;28;20017;-76
2021/10/16 00:56:34;;;;;;;1.02;0.63;;;;;;;;;;5055788;28;20036;-76
2021/10/16 00:59:02;;;;;;;1.10;0.63;;;;;;;;;;5054264;28;20112;-76
2021/10/16 01:01:31;;;;;;;2.45;0.70;;;;;;;;;;5055451;28;20036;-76
2021/10/16 01:03:57;;;;;;;1.33;0.77;;;;;;;;;;5055448;28;20364;-76
2021/10/16 01:06:23;;;;;;;1.08;0.70;;;;;;;;;;5055241;28;20098;-74
2021/10/16 01:08:49;;;;;;;1.20;0.85;;;;;;;;;;5055347;28;20040;-77
2021/10/16 01:11:15;;;;;;;0.82;0.55;;;;;;;;;;5055612;28;20032;-76
2021/10/16 01:13:42;;;;;;;1.33;0.80;;;;;;;;;;5055316;28;20083;-76
2021/10/16 01:16:09;;;;;;;1.13;0.70;;;;;;;;;;5055648;28;20382;-76
2021/10/16 01:18:35;;;;;;;0.90;0.75;;;;;;;;;;5055438;28;20079;-75
2021/10/16 01:21:08;;;;;;;0.85;0.63;;;;;;;;;;5053874;28;20111;-75
2021/10/16 01:23:35;;;;;;;2.08;0.85;;;;;;;;;;5055076;28;20099;-75
2021/10/16 01:26:02;;;;;;;1.33;0.80;;;;;;;;;;5053704;28;20033;-75
2021/10/16 01:28:28;;;;;;;1.23;0.80;;;;;;;;;;5055212;28;20026;-75
2021/10/16 01:30:56;;;;;;;1.45;0.77;;;;;;;;;;5054935;28;20025;-76
2021/10/16 01:33:25;;;;;;;0.98;0.80;;;;;;;;;;5053592;28;20387;-77
2021/10/16 01:36:01;;;;;;;1.58;0.70;;;;;;;;;;5055038;28;20470;-77
2021/10/16 01:38:28;;;;;;;1.60;0.70;;;;;;;;;;5055090;28;20040;-77
2021/10/16 01:40:54;;;;;;;3.25;0.60;;;;;;;;;;5054762;28;20033;-76
2021/10/16 01:43:20;;;;;;;0.57;0.50;;;;;;;;;;5055251;28;20090;-75
2021/10/16 01:45:46;;;;;;;1.00;0.70;;;;;;;;;;5054947;28;20092;-75
2021/10/16 01:48:12;;;;;;;0.98;0.63;;;;;;;;;;5054703;28;20036;-75
2021/10/16 01:50:42;;;;;;;0.63;0.50;;;;;;;;;;5054607;28;20075;-75
2021/10/16 01:53:12;;;;;;;1.13;0.55;;;;;;;;;;5053280;28;20445;-76
2021/10/16 01:55:38;;;;;;;1.50;0.80;;;;;;;;;;5053203;28;20029;-76
2021/10/16 01:58:15;;;;;;;0.80;0.50;;;;;;;;;;5054412;28;20462;-76
2021/10/16 02:00:43;;;;;;;0.80;0.63;;;;;;;;;;5054636;28;20025;-75
2021/10/16 02:03:10;;;;;;;0.77;0.60;;;;;;;;;;5053069;28;20035;-76
2021/10/16 02:05:40;;;;;;;1.63;0.70;;;;;;;;;;5054253;28;20521;-76
2021/10/16 02:08:07;;;;;;;1.73;0.88;;;;;;;;;;5054139;28;20048;-76
2021/10/16 02:10:33;;;;;;;1.77;0.90;;;;;;;;;;5054207;28;20032;-76
2021/10/16 02:12:59;;;;;;;2.47;0.70;;;;;;;;;;5054092;28;20562;-76
2021/10/16 02:15:25;;;;;;;1.75;0.68;;;;;;;;;;5054288;28;20095;-75
2021/10/16 02:17:51;;;;;;;2.35;1.27;;;;;;;;;;5053972;28;20505;-76
2021/10/16 02:20:18;;;;;;;4.22;0.93;;;;;;;;;;5054312;28;20076;-76
2021/10/16 02:22:44;;;;;;;1.58;0.65;;;;;;;;;;5053937;28;20067;-75
2021/10/16 02:25:10;;;;;;;0.80;0.60;;;;;;;;;;5053907;28;20028;-75
2021/10/16 02:27:36;;;;;;;1.00;0.70;;;;;;;;;;5052558;28;20063;-75
2021/10/16 02:30:03;;;;;;;1.45;0.63;;;;;;;;;;5053807;28;20029;-76
2021/10/16 02:32:29;;;;;;;0.98;0.80;;;;;;;;;;5053840;28;20025;-76
2021/10/16 02:34:56;;;;;;;0.90;0.65;;;;;;;;;;5053752;28;20031;-77
2021/10/16 02:37:22;;;;;;;0.82;0.52;;;;;;;;;;5053639;28;20063;-78
2021/10/16 02:39:48;;;;;;;0.40;0.40;;;;;;;;;;5054148;28;20459;-77
2021/10/16 02:42:14;;;;;;;0.40;0.40;;;;;;;;;;5053652;28;20364;-76
2021/10/16 02:44:40;;;;;;;1.33;0.52;;;;;;;;;;5052349;28;20028;-75
2021/10/16 02:47:06;;;;;;;1.10;0.65;;;;;;;;;;5054093;28;20025;-76
2021/10/16 02:49:33;;;;;;;1.38;0.60;;;;;;;;;;5053852;28;20497;-76
2021/10/16 02:51:59;;;;;;;2.03;0.57;;;;;;;;;;5053506;28;20055;-77
2021/10/16 02:54:25;;;;;;;2.95;0.55;;;;;;;;;;5053738;28;20519;-77
2021/10/16 02:56:51;;;;;;;2.47;1.30;;;;;;;;;;5053346;28;20120;-77
2021/10/16 02:59:17;;;;;;;2.60;1.00;;;;;;;;;;5053285;28;20021;-76
2021/10/16 03:01:43;;;;;;;1.95;1.27;;;;;;;;;;5051999;28;20033;-75
2021/10/16 03:04:10;;;;;;;1.55;0.90;;;;;;;;;;5053206;28;20063;-76
2021/10/16 03:06:36;;;;;;;1.45;0.80;;;;;;;;;;5053221;28;20025;-76
2021/10/16 03:09:02;;;;;;;2.33;1.10;;;;;;;;;;5053615;28;20036;-76
2021/10/16 03:11:28;;;;;;;0.55;0.55;;;;;;;;;;5053358;28;20462;-77
2021/10/16 03:13:55;;;;;;;0.57;0.50;;;;;;;;;;5067249;28;20029;-76
2021/10/16 03:16:23;;;;;;;1.00;0.80;;;;;;;;;;5075191;28;20101;-76
2021/10/16 03:18:49;;;;;;;2.10;1.00;;;;;;;;;;5054269;28;20479;-75
2021/10/16 03:21:15;;;;;;;2.05;0.93;;;;;;;;;;5053135;28;20029;-76
2021/10/16 03:23:42;;;;;;;1.30;0.82;;;;;;;;;;5051881;28;20108;-75
2021/10/16 03:26:08;;;;;;;3.13;1.00;;;;;;;;;;5053141;28;20036;-76
2021/10/16 03:28:34;;;;;;;1.38;0.80;;;;;;;;;;5053400;28;20021;-75
2021/10/16 03:31:00;;;;;;;1.00;0.70;;;;;;;;;;5054168;28;20058;-76
2021/10/16 03:33:27;;;;;;;0.98;0.60;;;;;;;;;;5054874;28;20027;-77
2021/10/16 03:35:53;;;;;;;0.68;0.60;;;;;;;;;;5054613;28;20040;-77
2021/10/16 03:38:19;;;;;;;2.33;0.90;;;;;;;;;;5054648;28;20036;-77
2021/10/16 03:40:45;;;;;;;0.82;0.65;;;;;;;;;;5052131;28;20478;-76
2021/10/16 03:43:11;;;;;;;11.02;0.75;;;;;;;;;;5052974;28;20095;-77
2021/10/16 03:45:37;;;;;;;1.05;0.65;;;;;;;;;;5053015;28;20021;-75
2021/10/16 03:48:04;;;;;;;2.88;0.95;;;;;;;;;;5053014;28;20013;-77
2021/10/16 03:50:30;;;;;;;1.95;1.17;;;;;;;;;;5052938;28;20032;-77
2021/10/16 03:52:56;;;;;;;1.60;0.90;;;;;;;;;;5052950;28;20367;-77
2021/10/16 03:55:22;;;;;;;1.40;0.80;;;;;;;;;;5053074;28;20025;-77
2021/10/16 03:57:49;;;;;;;0.77;0.70;;;;;;;;;;5052898;28;20032;-77
2021/10/16 04:00:19;;;;;;;0.43;0.43;;;;;;;;;;5051810;28;20021;-77
2021/10/16 04:02:47;;;;;;;0.88;0.70;;;;;;;;;;5052794;28;20025;-76
2021/10/16 04:05:14;;;;;;;0.77;0.57;;;;;;;;;;5052905;28;20017;-77
2021/10/16 04:07:40;;;;;;;1.17;0.70;;;;;;;;;;5051770;28;20124;-76
2021/10/16 04:10:07;;;;;;;1.55;0.73;;;;;;;;;;5052841;28;20040;-77
2021/10/16 04:12:33;;;;;;;1.02;0.80;;;;;;;;;;5054095;28;20025;-76
2021/10/16 04:14:59;;;;;;;1.13;0.50;;;;;;;;;;5053386;28;20024;-76
2021/10/16 04:17:25;;;;;;;1.98;0.65;;;;;;;;;;5056647;28;20111;-76
2021/10/16 04:19:51;;;;;;;1.20;0.63;;;;;;;;;;5054986;28;20036;-75
2021/10/16 04:22:18;;;;;;;1.25;0.65;;;;;;;;;;5056271;28;20144;-76
2021/10/16 04:24:44;;;;;;;1.40;0.70;;;;;;;;;;5054868;28;20028;-75
2021/10/16 04:27:11;;;;;;;1.90;0.82;;;;;;;;;;5056202;28;20096;-77
2021/10/16 04:29:37;;;;;;;1.92;0.98;;;;;;;;;;5056170;28;20360;-76
2021/10/16 04:32:04;;;;;;;2.15;1.05;;;;;;;;;;5056072;28;20096;-76
2021/10/16 04:34:30;;;;;;;1.17;0.70;;;;;;;;;;5056385;28;20029;-77
2021/10/16 04:36:56;;;;;;;0.93;0.63;;;;;;;;;;5055876;28;20037;-76
2021/10/16 04:39:22;;;;;;;1.35;0.63;;;;;;;;;;5056203;28;20525;-77
2021/10/16 04:41:48;;;;;;;0.60;0.50;;;;;;;;;;5055941;28;20098;-76
2021/10/16 04:44:14;;;;;;;1.25;0.75;;;;;;;;;;5056102;28;20468;-76
2021/10/16 04:46:41;;;;;;;0.52;0.52;;;;;;;;;;5055764;28;20049;-76
2021/10/16 04:49:07;;;;;;;1.17;0.70;;;;;;;;;;5055840;28;20501;-76
2021/10/16 04:51:33;;;;;;;1.10;0.60;;;;;;;;;;5055654;28;20029;-76
2021/10/16 04:54:00;;;;;;;1.25;0.57;;;;;;;;;;5056187;28;20364;-76
2021/10/16 04:56:26;;;;;;;1.52;1.02;;;;;;;;;;5056101;28;20171;-76
2021/10/16 04:58:52;;;;;;;1.92;1.00;;;;;;;;;;5055573;28;20120;-76
2021/10/16 05:01:18;;;;;;;1.77;1.20;;;;;;;;;;5055953;28;20021;-76
2021/10/16 05:03:45;;;;;;;2.30;1.08;;;;;;;;;;5054474;28;20025;-76
2021/10/16 05:06:11;;;;;;;3.67;1.48;;;;;;;;;;5054142;28;20033;-76
2021/10/16 05:08:37;;;;;;;7.32;2.75;;;;;;;;;;5055258;28;20399;-76
2021/10/16 05:11:04;;;;;;;2.78;1.25;;;;;;;;;;5055610;28;20083;-76
2021/10/16 05:13:30;;;;;;;6.10;1.88;;;;;;;;;;5055268;28;20414;-76
2021/10/16 05:15:56;;;;;;;5.20;1.85;;;;;;;;;;5055650;28;20057;-75
2021/10/16 05:18:23;;;;;;;5.55;1.65;;;;;;;;;;5055438;28;20029;-76
2021/10/16 05:20:53;;;;;;;4.63;1.20;;;;;;;;;;5054154;28;20024;-75
2021/10/16 05:23:19;;;;;;;3.60;1.40;;;;;;;;;;5055614;28;20032;-75
2021/10/16 05:25:46;;;;;;;11.38;3.70;;;;;;;;;;5053443;28;20494;-75
2021/10/16 05:28:13;;;;;;;13.25;5.20;;;;;;;;;;5054931;28;20053;-76
2021/10/16 05:30:39;;;;;;;10.77;4.95;;;;;;;;;;5053705;28;20078;-76
2021/10/16 05:33:05;;;;;;;9.65;4.30;;;;;;;;;;5054972;28;20017;-76
2021/10/16 05:35:31;;;;;;;5.00;2.35;;;;;;;;;;5053690;28;20032;-76
2021/10/16 05:37:58;;;;;;;6.38;3.40;;;;;;;;;;5054897;28;20389;-76
2021/10/16 05:40:24;;;;;;;5.95;3.00;;;;;;;;;;5054942;28;20024;-76
2021/10/16 05:42:50;;;;;;;4.50;2.03;;;;;;;;;;5053443;28;20502;-76
2021/10/16 05:45:16;;;;;;;3.83;1.85;;;;;;;;;;5055304;28;20021;-76
2021/10/16 05:47:42;;;;;;;6.95;3.17;;;;;;;;;;5054631;28;20025;-75
2021/10/16 05:50:10;;;;;;;7.55;2.70;;;;;;;;;;5054599;28;20021;-75
2021/10/16 05:52:36;;;;;;;6.53;2.42;;;;;;;;;;5054552;28;20025;-75
2021/10/16 05:55:04;;;;;;;6.05;2.30;;;;;;;;;;5054531;28;20638;-76
2021/10/16 05:57:30;;;;;;;6.50;2.38;;;;;;;;;;5053073;28;20079;-75
2021/10/16 05:59:56;;;;;;;7.38;2.40;;;;;;;;;;5054395;28;20442;-76
2021/10/16 06:02:22;;;;;;;4.82;2.20;;;;;;;;;;5054953;28;20033;-76
2021/10/16 06:04:48;;;;;;;8.57;3.22;;;;;;;;;;5054810;28;20017;-76
2021/10/16 06:07:14;;;;;;;6.70;2.97;;;;;;;;;;5054398;28;20040;-76
2021/10/16 06:09:41;;;;;;;6.72;2.58;;;;;;;;;;5053081;28;20090;-76
2021/10/16 06:12:07;;;;;;;7.40;3.00;;;;;;;;;;5054856;28;20407;-77
2021/10/16 06:14:33;;;;;;;5.35;2.70;;;;;;;;;;5054277;28;20075;-76
2021/10/16 06:16:59;;;;;;;6.35;2.55;;;;;;;;;;5054406;28;20064;-75
2021/10/16 06:19:25;;;;;;;4.05;1.90;;;;;;;;;;5054086;28;20382;-75
2021/10/16 06:21:51;;;;;;;3.00;1.73;;;;;;;;;;5054175;28;20036;-75
2021/10/16 06:24:18;;;;;;;6.43;2.70;;;;;;;;;;5054047;28;20032;-77
2021/10/16 06:26:44;;;;;;;5.88;2.42;;;;;;;;;;5054088;28;20159;-75
2021/10/16 06:29:10;;;;;;;3.45;1.83;;;;;;;;;;5054635;28;20063;-76
2021/10/16 06:31:36;;;;;;;7.03;3.33;;;;;;;;;;5052626;28;20491;-76
2021/10/16 06:34:03;;;;;;;6.55;2.92;;;;;;;;;;5052690;28;20481;-76
2021/10/16 06:36:29;;;;;;;5.25;2.90;;;;;;;;;;5054233;28;20037;-76
2021/10/16 06:38:55;;;;;;;6.03;3.25;;;;;;;;;;5053268;28;20099;-76
2021/10/16 06:41:21;;;;;;;5.82;2.80;;;;;;;;;;5055671;28;20039;-74
2021/10/16 06:43:47;;;;;;;6.70;3.35;;;;;;;;;;5057751;28;20024;-75
2021/10/16 06:46:13;;;;;;;5.05;2.00;;;;;;;;;;5055667;28;20536;-75
2021/10/16 06:48:40;;;;;;;2.88;1.60;;;;;;;;;;5053800;28;20099;-75
2021/10/16 06:51:06;;;;;;;4.15;2.38;;;;;;;;;;5054254;28;20025;-75
2021/10/16 06:53:32;;;;;;;5.53;2.20;;;;;;;;;;5053839;28;20045;-75
2021/10/16 06:56:04;;;;;;;5.95;2.58;;;;;;;;;;5052161;28;20494;-77
2021/10/16 06:58:31;;;;;;;6.70;2.70;;;;;;;;;;5053947;28;20033;-75
2021/10/16 07:00:57;;;;;;;5.35;2.50;;;;;;;;;;5054094;28;20028;-75
2021/10/16 07:03:23;;;;;;;5.40;2.92;;;;;;;;;;5053818;28;20078;-76
2021/10/16 07:05:49;;;;;;;10.25;5.10;;;;;;;;;;5054868;28;20040;-75
2021/10/16 07:08:18;;;;;;;9.60;3.25;;;;;;;;;;5053606;28;20411;-77
2021/10/16 07:10:44;;;;;;;5.38;2.80;;;;;;;;;;5053430;28;20036;-77
2021/10/16 07:13:11;;;;;;;6.65;3.92;;;;;;;;;;5053556;28;20022;-76
2021/10/16 07:15:37;;;;;;;11.63;4.55;;;;;;;;;;5053156;28;20025;-75
2021/10/16 07:18:04;;;;;;;10.15;6.57;;;;;;;;;;5051871;28;20029;-76
2021/10/16 07:20:30;;;;;;;8.75;3.72;;;;;;;;;;5053185;28;20029;-77
2021/10/16 07:22:56;;;;;;;8.00;3.85;;;;;;;;;;5053638;28;20025;-77
2021/10/16 07:25:22;;;;;;;5.82;3.00;;;;;;;;;;5053425;28;20029;-77
2021/10/16 07:27:51;;;;;;;6.55;3.15;;;;;;;;;;5053324;28;20024;-76
2021/10/16 07:30:19;;;;;;;2.22;1.67;;;;;;;;;;5053162;28;20429;-76
2021/10/16 07:32:45;;;;;;;5.90;2.67;;;;;;;;;;5053074;28;20021;-76
2021/10/16 07:35:12;;;;;;;4.97;2.42;;;;;;;;;;5053084;28;20043;-76
2021/10/16 07:37:38;;;;;;;7.32;2.10;;;;;;;;;;5053529;28;20463;-76
2021/10/16 07:40:04;;;;;;;6.57;2.92;;;;;;;;;;5053214;28;20025;-75
2021/10/16 07:42:31;;;;;;;5.18;2.20;;;;;;;;;;5053162;28;20031;-77
2021/10/16 07:44:57;;;;;;;7.22;3.38;;;;;;;;;;5052937;28;20029;-76
2021/10/16 07:47:26;;;;;;;7.07;3.38;;;;;;;;;;5053016;28;20028;-76
2021/10/16 07:49:53;;;;;;;13.05;6.22;;;;;;;;;;5055039;28;20029;-76
2021/10/16 07:52:19;;;;;;;13.05;5.90;;;;;;;;;;5057088;28;20025;-78
2021/10/16 07:54:46;;;;;;;9.13;4.25;;;;;;;;;;5056706;28;20037;-76
2021/10/16 07:57:14;;;;;;;29.20;12.88;;;;;;;;;;5056534;28;20112;-75
2021/10/16 07:59:40;;;;;;;15.38;8.27;;;;;;;;;;5055431;28;20025;-77
2021/10/16 08:02:07;;;;;;;36.15;13.93;;;;;;;;;;5056561;28;20029;-75
2021/10/16 08:04:33;;;;;;;15.10;7.40;;;;;;;;;;5056526;28;20169;-77
2021/10/16 08:06:59;;;;;;;7.82;3.88;;;;;;;;;;5056413;28;20052;-76
2021/10/16 08:09:25;;;;;;;9.40;4.05;;;;;;;;;;5056820;28;20025;-77
2021/10/16 08:11:51;;;;;;;13.57;6.82;;;;;;;;;;5056541;28;20033;-78
2021/10/16 08:14:18;;;;;;;6.97;3.72;;;;;;;;;;5055263;28;20025;-77
2021/10/16 08:16:44;;;;;;;12.95;6.13;;;;;;;;;;5056464;28;20060;-76
2021/10/16 08:19:10;;;;;;;9.55;4.85;;;;;;;;;;5056598;28;20021;-75
2021/10/16 08:21:36;;;;;;;5.20;2.67;;;;;;;;;;5056514;28;20075;-76
2021/10/16 08:24:03;;;;;;;5.85;2.88;;;;;;;;;;5054904;28;20021;-77
2021/10/16 08:26:29;;;;;;;5.93;3.60;;;;;;;;;;5056177;28;20033;-77
2021/10/16 08:28:55;;;;;;;10.63;5.53;;;;;;;;;;5056504;28;20024;-77
2021/10/16 08:31:22;;;;;;;5.13;2.58;;;;;;;;;;5056113;28;20033;-76
2021/10/16 08:33:48;;;;;;;3.85;2.10;;;;;;;;;;5056384;28;20025;-79
2021/10/16 08:36:14;;;;;;;5.75;3.03;;;;;;;;;;5054676;28;20486;-79
2021/10/16 08:38:41;;;;;;;7.80;3.70;;;;;;;;;;5054641;28;20052;-77
2021/10/16 08:41:09;;;;;;;6.60;3.60;;;;;;;;;;5055893;28;20021;-77
2021/10/16 08:43:36;;;;;;;9.07;4.25;;;;;;;;;;5055879;28;20025;-76
2021/10/16 08:46:02;;;;;;;13.15;5.85;;;;;;;;;;5054491;28;20033;-76
2021/10/16 08:48:29;;;;;;;8.88;4.32;;;;;;;;;;5055708;28;20398;-76
2021/10/16 08:50:56;;;;;;;8.15;4.30;;;;;;;;;;5055899;28;20025;-76
2021/10/16 08:53:22;;;;;;;4.93;2.83;;;;;;;;;;5054337;28;20056;-76
2021/10/16 08:55:52;;;;;;;8.23;3.92;;;;;;;;;;5055762;28;20064;-76
2021/10/16 08:58:18;;;;;;;11.45;5.45;;;;;;;;;;5055781;28;20029;-76
2021/10/16 09:00:49;;;;;;;12.13;6.72;;;;;;;;;;5054745;28;20032;-76
2021/10/16 09:03:24;;;;;;;7.88;4.13;;;;;;;;;;5054121;28;20028;-76
2021/10/16 09:06:11;;;;;;;9.60;4.55;;;;;;;;;;5054119;28;20075;-77
2021/10/16 09:08:39;;;;;;;7.43;4.07;;;;;;;;;;5055265;28;20047;-76
2021/10/16 09:11:14;;;;;;;11.07;5.43;;;;;;;;;;5054088;28;20494;-76
2021/10/16 09:13:45;;;;;;;11.73;6.57;;;;;;;;;;5055227;28;20487;-77
2021/10/16 09:16:18;;;;;;;9.18;4.50;;;;;;;;;;5055400;28;20450;-76
2021/10/16 09:19:11;;;;;;;10.23;5.65;;;;;;;;;;5055577;28;20021;-77
2021/10/16 09:21:42;;;;;;;8.07;4.10;;;;;;;;;;5016732;28;20470;-77
2021/10/16 09:24:08;;;;;;;9.10;4.82;;;;;;;;;;5053879;28;20098;-77
2021/10/16 09:26:35;;;;;;;10.82;6.43;;;;;;;;;;5053722;28;20458;-76
2021/10/16 09:29:02;;;;;;;11.75;4.85;;;;;;;;;;5053658;28;20021;-77
2021/10/16 09:31:35;;;;;;;8.30;3.63;;;;;;;;;;5054981;28;20025;-78
2021/10/16 09:34:02;;;;;;;9.52;4.10;;;;;;;;;;5055263;28;20024;-77
2021/10/16 09:36:32;;;;;;;9.95;4.22;;;;;;;;;;5053387;28;20029;-78
2021/10/16 09:38:59;;;;;;;9.50;4.78;;;;;;;;;;5053587;28;20375;-77
2021/10/16 09:41:26;;;;;;;8.00;4.65;;;;;;;;;;5054762;28;20104;-77
2021/10/16 09:43:53;;;;;;;9.98;3.35;;;;;;;;;;5055247;28;20413;-76
2021/10/16 09:46:20;;;;;;;7.65;3.80;;;;;;;;;;5054702;28;20074;-77
2021/10/16 09:48:47;;;;;;;9.35;4.57;;;;;;;;;;5053259;28;20078;-76
2021/10/16 09:51:14;;;;;;;9.43;5.88;;;;;;;;;;5054490;28;20029;-76
2021/10/16 09:54:05;;;;;;;8.15;4.15;;;;;;;;;;5054529;28;20017;-77
2021/10/16 09:56:32;;;;;;;8.15;4.25;;;;;;;;;;5054657;28;20124;-77
2021/10/16 09:58:59;;;;;;;7.55;4.38;;;;;;;;;;5054789;28;20029;-77
2021/10/16 10:01:25;;;;;;;10.23;5.32;;;;;;;;;;5053192;28;20486;-76
2021/10/16 10:03:51;;;;;;;7.53;4.53;;;;;;;;;;5054260;28;20056;-78
2021/10/16 10:06:18;;;;;;;12.98;6.00;;;;;;;;;;5054576;28;20029;-76
2021/10/16 10:08:44;;;;;;;13.38;4.75;;;;;;;;;;5054683;28;20516;-77
2021/10/16 10:11:11;;;;;;;10.90;4.97;;;;;;;;;;5078789;28;20021;-76
2021/10/16 10:13:37;;;;;;;10.65;4.25;;;;;;;;;;5073670;28;20025;-76
2021/10/16 10:16:03;;;;;;;8.88;4.10;;;;;;;;;;5054176;28;20047;-77
2021/10/16 10:21:15;;;;;;;10.32;5.28;;;;;;;;;;5054128;28;20493;-76
2021/10/16 10:23:58;;;;;;;8.10;4.38;;;;;;;;;;5054348;28;20055;-75
2021/10/16 10:26:25;;;;;;;8.23;3.97;;;;;;;;;;5053739;28;20021;-76
2021/10/16 10:29:01;;;;;;;8.73;4.95;;;;;;;;;;5052605;28;20079;-76
2021/10/16 10:31:45;;;;;;;14.55;5.45;;;;;;;;;;5053803;28;20025;-76
2021/10/16 10:34:25;;;;;;;9.45;4.80;;;;;;;;;;5054182;28;20036;-76
2021/10/16 10:36:57;;;;;;;11.85;5.32;;;;;;;;;;5053945;28;20434;-78
2021/10/16 10:39:35;;;;;;;11.75;5.03;;;;;;;;;;5053999;28;20028;-78
2021/10/16 10:42:14;;;;;;;13.20;5.50;;;;;;;;;;5053811;28;20440;-76
2021/10/16 10:44:44;;;;;;;8.30;4.00;;;;;;;;;;5053931;28;20029;-76
2021/10/16 10:47:25;;;;;;;8.57;4.97;;;;;;;;;;5053994;28;20029;-76
2021/10/16 10:49:56;;;;;;;8.50;4.22;;;;;;;;;;5053670;28;20017;-76
2021/10/16 10:52:23;;;;;;;10.80;6.15;;;;;;;;;;5053531;28;20104;-76
2021/10/16 10:55:08;;;;;;;10.75;6.47;;;;;;;;;;5053754;28;20017;-76
2021/10/16 10:57:59;;;;;;;13.05;7.10;;;;;;;;;;5053459;28;20056;-76
2021/10/16 11:00:28;;;;;;;11.13;6.05;;;;;;;;;;5053763;28;20028;-78
2021/10/16 11:02:54;;;;;;;11.48;6.25;;;;;;;;;;5051999;28;20083;-79
2021/10/16 11:05:36;;;;;;;9.45;4.38;;;;;;;;;;5053566;28;20024;-76
2021/10/16 11:08:08;;;;;;;13.25;7.35;;;;;;;;;;5053121;28;20051;-76
2021/10/16 11:10:34;;;;;;;11.93;6.68;;;;;;;;;;5053276;28;20099;-76
2021/10/16 11:16:58;;;;;;;7.95;3.88;;;;;;;;;;5112086;27;20896;-77
2021/10/16 11:19:25;;;;;;;7.95;4.47;;;;;;;;;;5111456;28;20031;-76
2021/10/16 11:21:52;;;;;;;13.73;7.55;;;;;;;;;;5110969;28;20024;-75
2021/10/16 11:24:37;;;;;;;11.75;5.53;;;;;;;;;;5131919;27;20642;-76
2021/10/16 11:28:47;;;;;;;10.95;5.43;;;;;;;;;;5111069;27;20512;-76
2021/10/16 11:31:13;;;;;;;7.55;4.50;;;;;;;;;;5111913;28;20028;-77
2021/10/16 11:33:39;;;;;;;7.30;4.07;;;;;;;;;;5111289;28;20497;-78
2021/10/16 11:38:03;;;;;;;7.68;4.28;;;;;;;;;;5132226;27;20309;-78
2021/10/16 11:41:56;;;;;;;7.03;3.95;;;;;;;;;;5091033;27;20419;-78
2021/10/16 11:44:53;;;;;;;9.10;4.68;;;;;;;;;;5071129;28;20395;-76
2021/10/16 11:48:11;;;;;;;14.18;7.05;;;;;;;;;;5111148;27;20314;-76
2021/10/16 11:51:44;;;;;;;8.70;4.38;;;;;;;;;;5111466;27;20404;-77
2021/10/16 11:54:17;;;;;;;6.88;4.32;;;;;;;;;;5111376;28;20035;-76
2021/10/16 11:56:43;;;;;;;8.40;4.57;;;;;;;;;;5110883;28;20024;-76
2021/10/16 11:59:28;;;;;;;8.07;4.20;;;;;;;;;;5071161;28;20425;-78
2021/10/16 12:01:54;;;;;;;14.18;8.93;;;;;;;;;;5071077;28;20024;-76
2021/10/16 12:05:28;;;;;;;9.02;4.72;;;;;;;;;;5111865;27;20865;-77
2021/10/16 12:07:55;;;;;;;6.28;3.75;;;;;;;;;;5110034;28;20061;-77
2021/10/16 12:10:23;;;;;;;9.13;5.00;;;;;;;;;;5109595;28;20473;-77
2021/10/16 12:13:06;;;;;;;8.27;4.18;;;;;;;;;;5111253;28;20015;-78
2021/10/16 12:15:36;;;;;;;8.65;5.32;;;;;;;;;;5109889;28;20030;-76
2021/10/16 12:19:56;;;;;;;5.93;3.35;;;;;;;;;;5112154;27;20454;-75
2021/10/16 12:24:10;;;;;;;8.48;4.47;;;;;;;;;;5110965;27;20392;-77
2021/10/16 12:28:12;;;;;;;6.57;3.70;;;;;;;;;;5091762;27;20398;-78
2021/10/16 12:30:39;;;;;;;6.18;3.35;;;;;;;;;;5090620;28;20361;-75
2021/10/16 12:34:23;;;;;;;8.23;3.75;;;;;;;;;;5092501;27;21021;-79
2021/10/16 12:38:48;;;;;;;8.18;3.78;;;;;;;;;;5111402;27;20401;-76
2021/10/16 12:41:22;;;;;;;8.35;4.18;;;;;;;;;;5111622;28;20054;-77
2021/10/16 12:43:48;;;;;;;6.05;3.90;;;;;;;;;;5111634;28;20398;-77
2021/10/16 12:46:27;;;;;;;7.00;3.97;;;;;;;;;;5110892;28;20024;-76
2021/10/16 12:50:53;;;;;;;9.25;5.03;;;;;;;;;;5111765;27;20388;-76
2021/10/16 12:53:19;;;;;;;10.55;4.78;;;;;;;;;;5111018;28;20445;-76
2021/10/16 12:55:45;;;;;;;8.75;5.28;;;;;;;;;;5109959;28;20073;-77
2021/10/16 12:59:45;;;;;;;9.00;4.70;;;;;;;;;;5070691;28;20395;-75
2021/10/16 13:04:45;;;;;;;7.53;4.20;;;;;;;;;;5111804;27;20401;-76
2021/10/16 13:07:47;;;;;;;6.15;2.80;;;;;;;;;;5112025;27;20428;-76
2021/10/16 13:10:45;;;;;;;7.85;4.47;;;;;;;;;;5112095;27;20988;-76
2021/10/16 13:13:11;;;;;;;5.72;3.47;;;;;;;;;;5110860;28;20031;-76
2021/10/16 13:15:39;;;;;;;7.32;4.25;;;;;;;;;;5111411;28;20475;-76
2021/10/16 13:18:06;;;;;;;9.05;4.20;;;;;;;;;;5111257;28;20387;-76
2021/10/16 13:21:02;;;;;;;7.53;4.13;;;;;;;;;;5111195;27;20377;-76
2021/10/16 13:23:28;;;;;;;7.85;4.00;;;;;;;;;;5111252;28;20043;-76
2021/10/16 13:25:54;;;;;;;4.43;2.97;;;;;;;;;;5111501;28;20456;-75
2021/10/16 13:28:20;;;;;;;7.60;4.20;;;;;;;;;;5109610;28;20454;-76
2021/10/16 13:30:47;;;;;;;13.02;6.82;;;;;;;;;;5109863;28;20035;-75
2021/10/16 13:33:13;;;;;;;13.98;7.63;;;;;;;;;;5111351;28;20020;-76
2021/10/16 13:36:42;;;;;;;8.52;5.00;;;;;;;;;;5111350;27;20767;-77
2021/10/16 13:39:08;;;;;;;11.60;6.05;;;;;;;;;;5122220;28;20083;-75
2021/10/16 13:41:36;;;;;;;9.32;5.68;;;;;;;;;;5131359;28;20103;-76
2021/10/16 13:44:02;;;;;;;7.88;4.40;;;;;;;;;;5130213;28;20024;-76
2021/10/16 13:48:53;;;;;;;12.82;6.47;;;;;;;;;;5111743;27;20389;-75
2021/10/16 13:53:05;;;;;;;20.83;11.90;;;;;;;;;;5072261;28;20415;-76
2021/10/16 13:55:32;;;;;;;21.08;10.95;;;;;;;;;;5071294;28;20038;-76
2021/10/16 13:59:46;;;;;;;11.02;6.00;;;;;;;;;;5113295;27;20418;-76
2021/10/16 14:02:12;;;;;;;8.70;4.43;;;;;;;;;;5112779;28;20023;-77
2021/10/16 14:05:36;;;;;;;8.88;4.90;;;;;;;;;;5112661;27;20508;-76
2021/10/16 14:08:42;;;;;;;11.48;5.25;;;;;;;;;;5111678;27;20384;-76
2021/10/16 14:12:35;;;;;;;15.93;7.75;;;;;;;;;;5111845;27;20389;-76
2021/10/16 14:15:01;;;;;;;15.05;8.00;;;;;;;;;;5110183;28;20027;-76
2021/10/16 14:17:52;;;;;;;12.52;6.78;;;;;;;;;;5111613;27;20517;-75
2021/10/16 14:20:18;;;;;;;12.57;6.30;;;;;;;;;;5110236;28;20045;-75
2021/10/16 14:22:44;;;;;;;10.25;5.60;;;;;;;;;;5109702;28;20049;-75
2021/10/16 14:25:11;;;;;;;14.02;8.02;;;;;;;;;;5111625;28;20020;-78
2021/10/16 14:28:33;;;;;;;11.27;5.40;;;;;;;;;;5091806;27;20398;-77
2021/10/16 14:31:25;;;;;;;14.32;7.70;;;;;;;;;;5111248;27;20400;-76
2021/10/16 14:33:51;;;;;;;14.98;8.98;;;;;;;;;;5111398;28;20127;-77
2021/10/16 14:36:17;;;;;;;10.40;5.45;;;;;;;;;;5111560;28;20024;-79
2021/10/16 14:40:37;;;;;;;10.77;5.93;;;;;;;;;;5112326;27;20770;-78
2021/10/16 14:43:04;;;;;;;11.93;7.05;;;;;;;;;;5111732;28;20545;-78
2021/10/16 14:47:28;;;;;;;11.25;5.80;;;;;;;;;;5112318;27;20388;-77
2021/10/16 14:52:49;;;;;;;12.77;6.15;;;;;;;;;;5111391;27;20392;-76
2021/10/16 14:55:15;;;;;;;13.20;8.18;;;;;;;;;;5112021;28;20031;-78
2021/10/16 14:57:41;;;;;;;21.38;11.90;;;;;;;;;;5110297;28;20102;-76
2021/10/16 15:00:08;;;;;;;13.85;7.35;;;;;;;;;;5111043;28;20024;-77
2021/10/16 15:02:38;;;;;;;11.68;6.38;;;;;;;;;;5110166;28;20551;-76
2021/10/16 15:05:05;;;;;;;16.23;7.85;;;;;;;;;;5110940;28;20066;-78
2021/10/16 15:07:31;;;;;;;12.50;6.22;;;;;;;;;;5111647;28;20138;-76
2021/10/16 15:09:57;;;;;;;13.88;7.88;;;;;;;;;;5111788;28;20024;-79
2021/10/16 15:12:23;;;;;;;11.23;6.75;;;;;;;;;;5111236;28;20036;-77
2021/10/16 15:14:50;;;;;;;14.00;7.05;;;;;;;;;;5111944;28;20467;-77
2021/10/16 15:17:16;;;;;;;10.50;6.05;;;;;;;;;;5111425;28;20140;-75
2021/10/16 15:19:42;;;;;;;11.05;6.20;;;;;;;;;;5109571;28;20012;-75
2021/10/16 15:22:08;;;;;;;9.07;5.13;;;;;;;;;;5111123;28;20024;-75
2021/10/16 15:24:34;;;;;;;8.88;5.35;;;;;;;;;;5110840;28;20448;-76
2021/10/16 15:27:00;;;;;;;14.13;7.43;;;;;;;;;;5110595;28;20024;-77
2021/10/16 15:29:27;;;;;;;12.45;6.25;;;;;;;;;;5110713;28;20028;-77
2021/10/16 15:31:54;;;;;;;11.73;6.07;;;;;;;;;;5110685;28;20035;-76